sensor_id;sensor_type;location;lat;lon;timestamp;P1;durP1;ratioP1;P2;durP2;ratioP2
52744;SDS011;38637;49.984;20.426;2023-02-28T00:01:11;30.87;;;17.07;;
52744;SDS011;38637;49.984;20.426;2023-02-28T00:03:38;22.58;;;15.77;;
52744;SDS011;38637;49.984;20.426;2023-02-28T00:06:06;26.87;;;17.17;;
52744;SDS011;38637;49.984;20.426;2023-02-28T00:08:34;26.35;;;16.13;;
52744;SDS011;38637;49.984;20.426;2023-02-28T00:11:07;24.80;;;15.97;;
52744;SDS011;38637;49.984;20.426;2023-02-28T00:13:36;25.70;;;16.23;;
52744;SDS011;38637;49.984;20.426;2023-02-28T00:16:04;25.38;;;15.23;;
52744;SDS011;38637;49.984;20.426;2023-02-28T00:18:34;28.80;;;17.02;;
52744;SDS011;38637;49.984;20.426;2023-02-28T00:20:59;28.10;;;17.07;;
52744;SDS011;38637;49.984;20.426;2023-02-28T00:23:25;26.80;;;17.33;;
52744;SDS011;38637;49.984;20.426;2023-02-28T00:25:51;26.20;;;16.58;;
52744;SDS011;38637;49.984;20.426;2023-02-28T00:28:17;26.43;;;15.97;;
52744;SDS011;38637;49.984;20.426;2023-02-28T00:30:43;23.80;;;16.10;;
52744;SDS011;38637;49.984;20.426;2023-02-28T00:33:08;25.30;;;16.13;;
52744;SDS011;38637;49.984;20.426;2023-02-28T00:35:34;23.13;;;15.97;;
52744;SDS011;38637;49.984;20.426;2023-02-28T00:38:00;25.53;;;13.93;;
52744;SDS011;38637;49.984;20.426;2023-02-28T00:40:25;23.77;;;15.27;;
52744;SDS011;38637;49.984;20.426;2023-02-28T00:42:50;25.77;;;15.63;;
52744;SDS011;38637;49.984;20.426;2023-02-28T00:45:16;22.43;;;15.13;;
52744;SDS011;38637;49.984;20.426;2023-02-28T00:47:41;24.67;;;15.27;;
52744;SDS011;38637;49.984;20.426;2023-02-28T00:50:07;37.80;;;29.30;;
52744;SDS011;38637;49.984;20.426;2023-02-28T00:52:33;28.17;;;16.25;;
52744;SDS011;38637;49.984;20.426;2023-02-28T00:54:59;27.20;;;19.90;;
52744;SDS011;38637;49.984;20.426;2023-02-28T00:57:24;25.90;;;16.73;;
52744;SDS011;38637;49.984;20.426;2023-02-28T00:59:50;26.60;;;16.67;;
52744;SDS011;38637;49.984;20.426;2023-02-28T01:02:15;23.30;;;16.17;;
52744;SDS011;38637;49.984;20.426;2023-02-28T01:04:40;26.97;;;16.47;;
52744;SDS011;38637;49.984;20.426;2023-02-28T01:07:05;21.30;;;15.00;;
52744;SDS011;38637;49.984;20.426;2023-02-28T01:09:31;23.47;;;16.40;;
52744;SDS011;38637;49.984;20.426;2023-02-28T01:11:56;22.93;;;16.37;;
52744;SDS011;38637;49.984;20.426;2023-02-28T01:14:22;30.17;;;19.03;;
52744;SDS011;38637;49.984;20.426;2023-02-28T01:16:47;27.73;;;17.97;;
52744;SDS011;38637;49.984;20.426;2023-02-28T01:19:12;26.20;;;18.03;;
52744;SDS011;38637;49.984;20.426;2023-02-28T01:21:38;32.40;;;19.53;;
52744;SDS011;38637;49.984;20.426;2023-02-28T01:24:03;31.23;;;20.67;;
52744;SDS011;38637;49.984;20.426;2023-02-28T01:26:29;27.13;;;17.93;;
52744;SDS011;38637;49.984;20.426;2023-02-28T01:28:55;31.90;;;19.57;;
52744;SDS011;38637;49.984;20.426;2023-02-28T01:31:21;28.60;;;19.60;;
52744;SDS011;38637;49.984;20.426;2023-02-28T01:33:47;31.30;;;20.40;;
52744;SDS011;38637;49.984;20.426;2023-02-28T01:36:15;29.40;;;18.52;;
52744;SDS011;38637;49.984;20.426;2023-02-28T01:38:44;28.77;;;20.10;;
52744;SDS011;38637;49.984;20.426;2023-02-28T01:41:12;29.13;;;19.70;;
52744;SDS011;38637;49.984;20.426;2023-02-28T01:46:10;27.60;;;17.13;;
52744;SDS011;38637;49.984;20.426;2023-02-28T01:48:42;25.38;;;17.05;;
52744;SDS011;38637;49.984;20.426;2023-02-28T01:51:13;26.35;;;17.50;;
52744;SDS011;38637;49.984;20.426;2023-02-28T01:53:46;24.80;;;17.90;;
52744;SDS011;38637;49.984;20.426;2023-02-28T01:56:16;26.58;;;19.38;;
52744;SDS011;38637;49.984;20.426;2023-02-28T01:58:46;26.35;;;19.15;;
52744;SDS011;38637;49.984;20.426;2023-02-28T02:01:12;32.15;;;18.83;;
52744;SDS011;38637;49.984;20.426;2023-02-28T02:03:46;26.08;;;18.13;;
52744;SDS011;38637;49.984;20.426;2023-02-28T02:06:20;27.67;;;17.40;;
52744;SDS011;38637;49.984;20.426;2023-02-28T02:08:50;26.92;;;17.60;;
52744;SDS011;38637;49.984;20.426;2023-02-28T02:11:17;25.50;;;16.90;;
52744;SDS011;38637;49.984;20.426;2023-02-28T02:13:57;30.05;;;19.52;;
52744;SDS011;38637;49.984;20.426;2023-02-28T02:30:20;42.13;;;33.78;;
52744;SDS011;38637;49.984;20.426;2023-02-28T02:35:59;29.25;;;20.67;;
52744;SDS011;38637;49.984;20.426;2023-02-28T02:38:43;25.80;;;17.92;;
52744;SDS011;38637;49.984;20.426;2023-02-28T02:41:17;24.35;;;17.48;;
52744;SDS011;38637;49.984;20.426;2023-02-28T02:43:53;25.25;;;18.42;;
52744;SDS011;38637;49.984;20.426;2023-02-28T02:46:28;27.02;;;18.42;;
52744;SDS011;38637;49.984;20.426;2023-02-28T02:48:56;26.77;;;18.73;;
52744;SDS011;38637;49.984;20.426;2023-02-28T02:51:26;33.75;;;21.50;;
52744;SDS011;38637;49.984;20.426;2023-02-28T02:54:01;33.35;;;20.27;;
52744;SDS011;38637;49.984;20.426;2023-02-28T02:56:33;30.67;;;21.40;;
52744;SDS011;38637;49.984;20.426;2023-02-28T02:59:01;37.28;;;19.60;;
52744;SDS011;38637;49.984;20.426;2023-02-28T03:01:30;32.30;;;20.05;;
52744;SDS011;38637;49.984;20.426;2023-02-28T03:03:58;41.03;;;23.65;;
52744;SDS011;38637;49.984;20.426;2023-02-28T03:06:26;33.05;;;22.13;;
52744;SDS011;38637;49.984;20.426;2023-02-28T03:08:52;31.63;;;21.07;;
52744;SDS011;38637;49.984;20.426;2023-02-28T03:11:17;35.83;;;22.97;;
52744;SDS011;38637;49.984;20.426;2023-02-28T03:19:25;35.47;;;23.00;;
52744;SDS011;38637;49.984;20.426;2023-02-28T03:30:27;36.17;;;22.83;;
52744;SDS011;38637;49.984;20.426;2023-02-28T03:33:08;39.33;;;25.10;;
52744;SDS011;38637;49.984;20.426;2023-02-28T03:35:35;42.03;;;24.90;;
52744;SDS011;38637;49.984;20.426;2023-02-28T03:38:07;38.33;;;23.42;;
52744;SDS011;38637;49.984;20.426;2023-02-28T03:40:39;34.00;;;22.60;;
52744;SDS011;38637;49.984;20.426;2023-02-28T03:43:12;34.20;;;21.83;;
52744;SDS011;38637;49.984;20.426;2023-02-28T03:45:42;37.60;;;24.17;;
52744;SDS011;38637;49.984;20.426;2023-02-28T03:50:42;36.20;;;21.87;;
52744;SDS011;38637;49.984;20.426;2023-02-28T03:53:18;36.67;;;21.97;;
52744;SDS011;38637;49.984;20.426;2023-02-28T03:55:50;40.15;;;22.70;;
52744;SDS011;38637;49.984;20.426;2023-02-28T03:58:21;37.17;;;22.00;;
52744;SDS011;38637;49.984;20.426;2023-02-28T04:00:54;38.43;;;21.07;;
52744;SDS011;38637;49.984;20.426;2023-02-28T04:03:23;37.60;;;24.20;;
52744;SDS011;38637;49.984;20.426;2023-02-28T04:05:52;39.40;;;23.27;;
52744;SDS011;38637;49.984;20.426;2023-02-28T04:08:19;39.40;;;22.97;;
52744;SDS011;38637;49.984;20.426;2023-02-28T04:10:47;38.92;;;25.02;;
52744;SDS011;38637;49.984;20.426;2023-02-28T04:13:18;37.00;;;23.57;;
52744;SDS011;38637;49.984;20.426;2023-02-28T04:15:43;36.93;;;23.13;;
52744;SDS011;38637;49.984;20.426;2023-02-28T04:18:09;39.37;;;23.77;;
52744;SDS011;38637;49.984;20.426;2023-02-28T04:20:34;36.47;;;23.63;;
52744;SDS011;38637;49.984;20.426;2023-02-28T04:22:59;47.43;;;33.00;;
52744;SDS011;38637;49.984;20.426;2023-02-28T04:25:24;32.20;;;22.80;;
52744;SDS011;38637;49.984;20.426;2023-02-28T04:27:50;33.00;;;23.43;;
52744;SDS011;38637;49.984;20.426;2023-02-28T04:30:15;36.93;;;22.27;;
52744;SDS011;38637;49.984;20.426;2023-02-28T04:32:41;34.00;;;22.93;;
52744;SDS011;38637;49.984;20.426;2023-02-28T04:35:06;33.90;;;21.97;;
52744;SDS011;38637;49.984;20.426;2023-02-28T04:37:32;37.83;;;23.13;;
52744;SDS011;38637;49.984;20.426;2023-02-28T04:39:59;37.97;;;24.00;;
52744;SDS011;38637;49.984;20.426;2023-02-28T04:42:25;36.47;;;22.73;;
52744;SDS011;38637;49.984;20.426;2023-02-28T04:44:50;40.53;;;24.20;;
52744;SDS011;38637;49.984;20.426;2023-02-28T04:47:16;47.30;;;28.03;;
52744;SDS011;38637;49.984;20.426;2023-02-28T04:49:41;76.07;;;39.10;;
52744;SDS011;38637;49.984;20.426;2023-02-28T04:52:06;74.10;;;39.20;;
52744;SDS011;38637;49.984;20.426;2023-02-28T04:54:32;70.37;;;34.97;;
52744;SDS011;38637;49.984;20.426;2023-02-28T04:56:57;65.90;;;35.03;;
52744;SDS011;38637;49.984;20.426;2023-02-28T04:59:23;63.63;;;31.80;;
52744;SDS011;38637;49.984;20.426;2023-02-28T05:01:48;53.40;;;28.47;;
52744;SDS011;38637;49.984;20.426;2023-02-28T05:04:14;55.47;;;29.05;;
52744;SDS011;38637;49.984;20.426;2023-02-28T05:06:40;49.80;;;27.90;;
52744;SDS011;38637;49.984;20.426;2023-02-28T05:09:05;46.97;;;27.00;;
52744;SDS011;38637;49.984;20.426;2023-02-28T05:11:32;49.70;;;27.83;;
52744;SDS011;38637;49.984;20.426;2023-02-28T05:14:02;65.93;;;34.90;;
52744;SDS011;38637;49.984;20.426;2023-02-28T05:16:34;78.83;;;39.60;;
52744;SDS011;38637;49.984;20.426;2023-02-28T05:18:59;47.37;;;31.90;;
52744;SDS011;38637;49.984;20.426;2023-02-28T05:21:26;44.20;;;29.97;;
52744;SDS011;38637;49.984;20.426;2023-02-28T05:23:58;36.43;;;22.63;;
52744;SDS011;38637;49.984;20.426;2023-02-28T05:26:25;40.73;;;25.90;;
52744;SDS011;38637;49.984;20.426;2023-02-28T05:28:50;46.50;;;27.52;;
52744;SDS011;38637;49.984;20.426;2023-02-28T05:31:16;39.67;;;25.60;;
52744;SDS011;38637;49.984;20.426;2023-02-28T05:33:42;37.43;;;24.07;;
52744;SDS011;38637;49.984;20.426;2023-02-28T05:36:07;44.90;;;25.50;;
52744;SDS011;38637;49.984;20.426;2023-02-28T05:38:33;44.03;;;25.70;;
52744;SDS011;38637;49.984;20.426;2023-02-28T05:40:58;45.63;;;28.03;;
52744;SDS011;38637;49.984;20.426;2023-02-28T05:43:23;49.07;;;28.67;;
52744;SDS011;38637;49.984;20.426;2023-02-28T05:45:49;49.27;;;29.43;;
52744;SDS011;38637;49.984;20.426;2023-02-28T05:48:14;50.43;;;26.30;;
52744;SDS011;38637;49.984;20.426;2023-02-28T05:50:40;40.63;;;26.47;;
52744;SDS011;38637;49.984;20.426;2023-02-28T05:53:05;41.07;;;28.63;;
52744;SDS011;38637;49.984;20.426;2023-02-28T05:55:31;52.43;;;32.60;;
52744;SDS011;38637;49.984;20.426;2023-02-28T05:57:56;55.73;;;32.27;;
52744;SDS011;38637;49.984;20.426;2023-02-28T06:00:22;51.87;;;28.93;;
52744;SDS011;38637;49.984;20.426;2023-02-28T06:02:47;45.60;;;29.40;;
52744;SDS011;38637;49.984;20.426;2023-02-28T06:05:14;48.07;;;31.73;;
52744;SDS011;38637;49.984;20.426;2023-02-28T06:07:41;56.83;;;35.90;;
52744;SDS011;38637;49.984;20.426;2023-02-28T06:10:08;53.35;;;34.67;;
52744;SDS011;38637;49.984;20.426;2023-02-28T06:12:34;54.28;;;35.13;;
52744;SDS011;38637;49.984;20.426;2023-02-28T06:14:59;63.27;;;40.93;;
52744;SDS011;38637;49.984;20.426;2023-02-28T06:17:25;44.40;;;30.80;;
52744;SDS011;38637;49.984;20.426;2023-02-28T06:19:50;42.40;;;29.40;;
52744;SDS011;38637;49.984;20.426;2023-02-28T06:22:15;50.27;;;31.33;;
52744;SDS011;38637;49.984;20.426;2023-02-28T06:24:41;48.53;;;33.23;;
52744;SDS011;38637;49.984;20.426;2023-02-28T06:27:06;48.97;;;33.97;;
52744;SDS011;38637;49.984;20.426;2023-02-28T06:29:32;57.10;;;37.27;;
52744;SDS011;38637;49.984;20.426;2023-02-28T06:31:58;51.53;;;34.83;;
52744;SDS011;38637;49.984;20.426;2023-02-28T06:34:23;53.23;;;35.53;;
52744;SDS011;38637;49.984;20.426;2023-02-28T06:36:50;51.73;;;35.50;;
52744;SDS011;38637;49.984;20.426;2023-02-28T06:39:16;45.80;;;34.00;;
52744;SDS011;38637;49.984;20.426;2023-02-28T06:41:42;42.95;;;30.85;;
52744;SDS011;38637;49.984;20.426;2023-02-28T06:44:14;43.45;;;28.00;;
52744;SDS011;38637;49.984;20.426;2023-02-28T06:46:42;41.20;;;29.42;;
52744;SDS011;38637;49.984;20.426;2023-02-28T06:49:08;45.90;;;27.60;;
52744;SDS011;38637;49.984;20.426;2023-02-28T06:51:35;45.27;;;29.33;;
52744;SDS011;38637;49.984;20.426;2023-02-28T06:54:06;51.92;;;29.92;;
52744;SDS011;38637;49.984;20.426;2023-02-28T06:56:34;52.50;;;30.60;;
52744;SDS011;38637;49.984;20.426;2023-02-28T06:59:00;60.97;;;36.03;;
52744;SDS011;38637;49.984;20.426;2023-02-28T07:01:25;65.13;;;45.77;;
52744;SDS011;38637;49.984;20.426;2023-02-28T07:03:52;56.80;;;33.88;;
52744;SDS011;38637;49.984;20.426;2023-02-28T07:06:19;58.25;;;35.45;;
52744;SDS011;38637;49.984;20.426;2023-02-28T07:08:47;55.88;;;38.13;;
52744;SDS011;38637;49.984;20.426;2023-02-28T07:11:13;49.88;;;34.60;;
52744;SDS011;38637;49.984;20.426;2023-02-28T07:13:39;53.13;;;36.13;;
52744;SDS011;38637;49.984;20.426;2023-02-28T07:16:05;51.87;;;34.57;;
52744;SDS011;38637;49.984;20.426;2023-02-28T07:18:32;57.38;;;34.60;;
52744;SDS011;38637;49.984;20.426;2023-02-28T07:20:57;50.50;;;35.73;;
52744;SDS011;38637;49.984;20.426;2023-02-28T07:23:23;55.97;;;37.33;;
52744;SDS011;38637;49.984;20.426;2023-02-28T07:25:49;59.13;;;38.20;;
52744;SDS011;38637;49.984;20.426;2023-02-28T07:30:40;51.78;;;35.45;;
52744;SDS011;38637;49.984;20.426;2023-02-28T07:33:06;43.87;;;31.60;;
52744;SDS011;38637;49.984;20.426;2023-02-28T07:35:32;44.40;;;30.67;;
52744;SDS011;38637;49.984;20.426;2023-02-28T07:37:58;46.87;;;32.27;;
52744;SDS011;38637;49.984;20.426;2023-02-28T07:40:24;53.63;;;34.08;;
52744;SDS011;38637;49.984;20.426;2023-02-28T07:42:50;50.28;;;32.88;;
52744;SDS011;38637;49.984;20.426;2023-02-28T07:45:15;39.37;;;29.07;;
52744;SDS011;38637;49.984;20.426;2023-02-28T07:47:41;41.70;;;27.50;;
52744;SDS011;38637;49.984;20.426;2023-02-28T07:50:08;38.28;;;23.80;;
52744;SDS011;38637;49.984;20.426;2023-02-28T07:52:36;37.78;;;23.73;;
52744;SDS011;38637;49.984;20.426;2023-02-28T07:55:02;37.92;;;24.67;;
52744;SDS011;38637;49.984;20.426;2023-02-28T07:57:29;28.83;;;20.10;;
52744;SDS011;38637;49.984;20.426;2023-02-28T07:59:54;31.10;;;20.27;;
52744;SDS011;38637;49.984;20.426;2023-02-28T08:02:20;24.37;;;16.00;;
52744;SDS011;38637;49.984;20.426;2023-02-28T08:04:45;21.00;;;13.97;;
52744;SDS011;38637;49.984;20.426;2023-02-28T08:07:12;18.00;;;11.80;;
52744;SDS011;38637;49.984;20.426;2023-02-28T08:09:38;21.35;;;14.20;;
52744;SDS011;38637;49.984;20.426;2023-02-28T08:12:05;13.35;;;7.60;;
52744;SDS011;38637;49.984;20.426;2023-02-28T08:14:30;14.85;;;10.15;;
52744;SDS011;38637;49.984;20.426;2023-02-28T08:16:56;13.43;;;10.17;;
52744;SDS011;38637;49.984;20.426;2023-02-28T08:19:21;14.03;;;9.53;;
52744;SDS011;38637;49.984;20.426;2023-02-28T08:21:47;14.47;;;10.47;;
52744;SDS011;38637;49.984;20.426;2023-02-28T08:24:12;11.57;;;9.50;;
52744;SDS011;38637;49.984;20.426;2023-02-28T08:26:37;11.53;;;8.33;;
52744;SDS011;38637;49.984;20.426;2023-02-28T08:29:02;12.33;;;8.13;;
52744;SDS011;38637;49.984;20.426;2023-02-28T08:31:28;9.97;;;7.17;;
52744;SDS011;38637;49.984;20.426;2023-02-28T08:33:53;11.23;;;7.00;;
52744;SDS011;38637;49.984;20.426;2023-02-28T08:36:21;10.13;;;7.13;;
52744;SDS011;38637;49.984;20.426;2023-02-28T08:38:48;7.35;;;5.63;;
52744;SDS011;38637;49.984;20.426;2023-02-28T08:41:13;7.53;;;5.13;;
52744;SDS011;38637;49.984;20.426;2023-02-28T08:43:39;8.73;;;5.50;;
52744;SDS011;38637;49.984;20.426;2023-02-28T08:46:05;18.05;;;12.00;;
52744;SDS011;38637;49.984;20.426;2023-02-28T08:48:32;9.13;;;6.32;;
52744;SDS011;38637;49.984;20.426;2023-02-28T08:51:03;12.75;;;7.07;;
52744;SDS011;38637;49.984;20.426;2023-02-28T08:53:30;8.75;;;6.30;;
52744;SDS011;38637;49.984;20.426;2023-02-28T08:56:00;18.45;;;10.50;;
52744;SDS011;38637;49.984;20.426;2023-02-28T08:58:28;11.73;;;6.78;;
52744;SDS011;38637;49.984;20.426;2023-02-28T09:00:54;12.27;;;7.63;;
52744;SDS011;38637;49.984;20.426;2023-02-28T09:03:20;15.75;;;9.45;;
52744;SDS011;38637;49.984;20.426;2023-02-28T09:05:59;11.47;;;6.80;;
52744;SDS011;38637;49.984;20.426;2023-02-28T09:08:26;13.00;;;8.38;;
52744;SDS011;38637;49.984;20.426;2023-02-28T09:10:53;35.20;;;16.70;;
52744;SDS011;38637;49.984;20.426;2023-02-28T09:13:22;10.70;;;7.03;;
52744;SDS011;38637;49.984;20.426;2023-02-28T09:15:48;13.20;;;6.93;;
52744;SDS011;38637;49.984;20.426;2023-02-28T09:18:13;15.83;;;8.07;;
52744;SDS011;38637;49.984;20.426;2023-02-28T09:20:39;11.67;;;8.10;;
52744;SDS011;38637;49.984;20.426;2023-02-28T09:23:08;19.30;;;11.18;;
52744;SDS011;38637;49.984;20.426;2023-02-28T09:25:35;11.00;;;8.05;;
52744;SDS011;38637;49.984;20.426;2023-02-28T09:28:01;34.70;;;16.02;;
52744;SDS011;38637;49.984;20.426;2023-02-28T09:30:27;19.63;;;9.97;;
52744;SDS011;38637;49.984;20.426;2023-02-28T09:32:52;11.03;;;7.17;;
52744;SDS011;38637;49.984;20.426;2023-02-28T09:35:18;12.20;;;7.70;;
52744;SDS011;38637;49.984;20.426;2023-02-28T09:37:46;10.57;;;7.47;;
52744;SDS011;38637;49.984;20.426;2023-02-28T09:40:11;12.47;;;8.07;;
52744;SDS011;38637;49.984;20.426;2023-02-28T09:42:37;12.07;;;7.20;;
52744;SDS011;38637;49.984;20.426;2023-02-28T09:45:13;11.10;;;6.65;;
52744;SDS011;38637;49.984;20.426;2023-02-28T09:47:52;16.58;;;9.68;;
52744;SDS011;38637;49.984;20.426;2023-02-28T09:50:33;7.05;;;5.72;;
52744;SDS011;38637;49.984;20.426;2023-02-28T09:53:06;7.68;;;5.03;;
52744;SDS011;38637;49.984;20.426;2023-02-28T09:55:44;9.77;;;5.75;;
52744;SDS011;38637;49.984;20.426;2023-02-28T09:58:20;7.22;;;5.47;;
52744;SDS011;38637;49.984;20.426;2023-02-28T10:00:56;9.07;;;4.38;;
52744;SDS011;38637;49.984;20.426;2023-02-28T10:03:34;12.82;;;6.57;;
52744;SDS011;38637;49.984;20.426;2023-02-28T10:06:14;14.43;;;7.72;;
52744;SDS011;38637;49.984;20.426;2023-02-28T10:11:18;11.35;;;7.07;;
52744;SDS011;38637;49.984;20.426;2023-02-28T10:16:12;7.83;;;5.23;;
52744;SDS011;38637;49.984;20.426;2023-02-28T10:18:43;17.50;;;9.73;;
52744;SDS011;38637;49.984;20.426;2023-02-28T10:21:18;6.97;;;5.05;;
52744;SDS011;38637;49.984;20.426;2023-02-28T10:23:48;6.65;;;4.97;;
52744;SDS011;38637;49.984;20.426;2023-02-28T10:26:14;6.37;;;4.57;;
52744;SDS011;38637;49.984;20.426;2023-02-28T10:28:41;9.30;;;6.88;;
52744;SDS011;38637;49.984;20.426;2023-02-28T10:31:09;9.23;;;6.40;;
52744;SDS011;38637;49.984;20.426;2023-02-28T10:33:41;6.10;;;4.95;;
52744;SDS011;38637;49.984;20.426;2023-02-28T10:36:08;6.87;;;4.77;;
52744;SDS011;38637;49.984;20.426;2023-02-28T10:38:38;5.22;;;4.13;;
52744;SDS011;38637;49.984;20.426;2023-02-28T10:41:11;9.43;;;5.95;;
52744;SDS011;38637;49.984;20.426;2023-02-28T10:43:40;10.43;;;6.00;;
52744;SDS011;38637;49.984;20.426;2023-02-28T10:51:26;5.80;;;4.55;;
52744;SDS011;38637;49.984;20.426;2023-02-28T10:54:00;5.80;;;4.55;;
52744;SDS011;38637;49.984;20.426;2023-02-28T10:56:28;6.47;;;5.25;;
52744;SDS011;38637;49.984;20.426;2023-02-28T10:58:55;8.83;;;7.00;;
52744;SDS011;38637;49.984;20.426;2023-02-28T11:03:54;6.97;;;5.63;;
52744;SDS011;38637;49.984;20.426;2023-02-28T11:06:23;7.60;;;4.97;;
52744;SDS011;38637;49.984;20.426;2023-02-28T11:08:52;7.13;;;4.78;;
52744;SDS011;38637;49.984;20.426;2023-02-28T11:11:20;5.57;;;4.97;;
52744;SDS011;38637;49.984;20.426;2023-02-28T11:13:47;8.98;;;6.40;;
52744;SDS011;38637;49.984;20.426;2023-02-28T11:16:18;8.90;;;6.30;;
52744;SDS011;38637;49.984;20.426;2023-02-28T11:18:48;6.10;;;5.40;;
52744;SDS011;38637;49.984;20.426;2023-02-28T11:21:24;8.27;;;5.82;;
52744;SDS011;38637;49.984;20.426;2023-02-28T11:23:55;8.82;;;5.85;;
52744;SDS011;38637;49.984;20.426;2023-02-28T11:34:44;11.50;;;8.18;;
52744;SDS011;38637;49.984;20.426;2023-02-28T11:37:27;6.93;;;5.75;;
52744;SDS011;38637;49.984;20.426;2023-02-28T11:39:54;8.82;;;6.32;;
52744;SDS011;38637;49.984;20.426;2023-02-28T11:48:29;8.63;;;5.20;;
52744;SDS011;38637;49.984;20.426;2023-02-28T11:53:51;6.88;;;5.95;;
52744;SDS011;38637;49.984;20.426;2023-02-28T12:05:08;12.18;;;8.35;;
52744;SDS011;38637;49.984;20.426;2023-02-28T12:11:03;10.82;;;7.05;;
52744;SDS011;38637;49.984;20.426;2023-02-28T12:24:26;8.98;;;6.97;;
52744;SDS011;38637;49.984;20.426;2023-02-28T12:26:57;7.97;;;6.35;;
52744;SDS011;38637;49.984;20.426;2023-02-28T12:29:32;8.32;;;6.15;;
52744;SDS011;38637;49.984;20.426;2023-02-28T12:32:23;9.73;;;7.18;;
52744;SDS011;38637;49.984;20.426;2023-02-28T12:34:56;7.45;;;5.22;;
52744;SDS011;38637;49.984;20.426;2023-02-28T12:42:32;8.02;;;6.82;;
52744;SDS011;38637;49.984;20.426;2023-02-28T12:45:04;9.95;;;7.32;;
52744;SDS011;38637;49.984;20.426;2023-02-28T12:47:35;10.25;;;7.90;;
52744;SDS011;38637;49.984;20.426;2023-02-28T12:50:05;8.63;;;6.90;;
52744;SDS011;38637;49.984;20.426;2023-02-28T12:58:33;9.30;;;6.35;;
52744;SDS011;38637;49.984;20.426;2023-02-28T13:04:04;8.13;;;6.50;;
52744;SDS011;38637;49.984;20.426;2023-02-28T13:09:24;11.57;;;7.45;;
52744;SDS011;38637;49.984;20.426;2023-02-28T13:11:50;10.03;;;7.87;;
52744;SDS011;38637;49.984;20.426;2023-02-28T13:19:33;10.68;;;7.22;;
52744;SDS011;38637;49.984;20.426;2023-02-28T13:21:59;9.50;;;5.93;;
52744;SDS011;38637;49.984;20.426;2023-02-28T13:29:36;10.70;;;8.10;;
52744;SDS011;38637;49.984;20.426;2023-02-28T13:34:33;10.80;;;7.25;;
52744;SDS011;38637;49.984;20.426;2023-02-28T14:07:26;10.88;;;8.40;;
52744;SDS011;38637;49.984;20.426;2023-02-28T14:10:03;18.85;;;10.07;;
52744;SDS011;38637;49.984;20.426;2023-02-28T14:18:01;9.40;;;7.07;;
52744;SDS011;38637;49.984;20.426;2023-02-28T14:20:31;10.25;;;7.70;;
52744;SDS011;38637;49.984;20.426;2023-02-28T14:23:02;12.05;;;8.15;;
52744;SDS011;38637;49.984;20.426;2023-02-28T14:25:47;11.15;;;8.52;;
52744;SDS011;38637;49.984;20.426;2023-02-28T14:31:34;9.95;;;8.20;;
52744;SDS011;38637;49.984;20.426;2023-02-28T14:36:37;9.40;;;7.55;;
52744;SDS011;38637;49.984;20.426;2023-02-28T14:39:23;9.88;;;8.60;;
52744;SDS011;38637;49.984;20.426;2023-02-28T14:41:50;9.50;;;7.05;;
52744;SDS011;38637;49.984;20.426;2023-02-28T14:44:21;10.57;;;7.85;;
52744;SDS011;38637;49.984;20.426;2023-02-28T14:46:49;11.40;;;8.50;;
52744;SDS011;38637;49.984;20.426;2023-02-28T14:49:27;10.95;;;8.52;;
52744;SDS011;38637;49.984;20.426;2023-02-28T14:54:34;8.57;;;7.15;;
52744;SDS011;38637;49.984;20.426;2023-02-28T14:57:00;11.63;;;8.10;;
52744;SDS011;38637;49.984;20.426;2023-02-28T14:59:29;10.57;;;8.53;;
52744;SDS011;38637;49.984;20.426;2023-02-28T15:04:41;10.98;;;8.95;;
52744;SDS011;38637;49.984;20.426;2023-02-28T15:07:10;12.00;;;8.93;;
52744;SDS011;38637;49.984;20.426;2023-02-28T15:09:38;11.82;;;9.15;;
52744;SDS011;38637;49.984;20.426;2023-02-28T15:12:04;10.43;;;8.23;;
52744;SDS011;38637;49.984;20.426;2023-02-28T15:14:30;11.52;;;8.57;;
52744;SDS011;38637;49.984;20.426;2023-02-28T15:16:58;19.20;;;15.88;;
52744;SDS011;38637;49.984;20.426;2023-02-28T15:19:30;14.27;;;10.00;;
52744;SDS011;38637;49.984;20.426;2023-02-28T15:22:00;11.70;;;7.70;;
52744;SDS011;38637;49.984;20.426;2023-02-28T15:24:40;10.82;;;8.05;;
52744;SDS011;38637;49.984;20.426;2023-02-28T15:27:12;10.15;;;8.52;;
52744;SDS011;38637;49.984;20.426;2023-02-28T15:29:46;12.50;;;8.55;;
52744;SDS011;38637;49.984;20.426;2023-02-28T15:37:54;11.60;;;9.07;;
52744;SDS011;38637;49.984;20.426;2023-02-28T15:40:49;9.10;;;8.00;;
52744;SDS011;38637;49.984;20.426;2023-02-28T15:43:24;14.38;;;9.57;;
52744;SDS011;38637;49.984;20.426;2023-02-28T15:48:27;11.50;;;9.40;;
52744;SDS011;38637;49.984;20.426;2023-02-28T15:51:05;12.80;;;9.65;;
52744;SDS011;38637;49.984;20.426;2023-02-28T15:53:35;15.00;;;11.98;;
52744;SDS011;38637;49.984;20.426;2023-02-28T15:56:05;17.27;;;11.50;;
52744;SDS011;38637;49.984;20.426;2023-02-28T15:58:41;14.23;;;11.15;;
52744;SDS011;38637;49.984;20.426;2023-02-28T16:01:18;14.47;;;10.60;;
52744;SDS011;38637;49.984;20.426;2023-02-28T16:03:50;17.05;;;10.40;;
52744;SDS011;38637;49.984;20.426;2023-02-28T16:06:34;13.20;;;9.75;;
52744;SDS011;38637;49.984;20.426;2023-02-28T16:09:02;13.52;;;10.13;;
52744;SDS011;38637;49.984;20.426;2023-02-28T16:11:29;18.90;;;12.88;;
52744;SDS011;38637;49.984;20.426;2023-02-28T16:13:55;18.05;;;12.25;;
52744;SDS011;38637;49.984;20.426;2023-02-28T16:16:22;22.42;;;14.00;;
52744;SDS011;38637;49.984;20.426;2023-02-28T16:18:49;28.38;;;16.25;;
52744;SDS011;38637;49.984;20.426;2023-02-28T16:21:15;25.27;;;16.43;;
52744;SDS011;38637;49.984;20.426;2023-02-28T16:23:40;28.53;;;17.77;;
52744;SDS011;38637;49.984;20.426;2023-02-28T16:26:06;39.90;;;24.17;;
52744;SDS011;38637;49.984;20.426;2023-02-28T16:28:33;48.38;;;32.15;;
52744;SDS011;38637;49.984;20.426;2023-02-28T16:31:02;30.08;;;19.77;;
52744;SDS011;38637;49.984;20.426;2023-02-28T16:33:29;25.45;;;17.48;;
52744;SDS011;38637;49.984;20.426;2023-02-28T16:35:55;29.73;;;18.50;;
52744;SDS011;38637;49.984;20.426;2023-02-28T16:38:21;30.33;;;20.00;;
52744;SDS011;38637;49.984;20.426;2023-02-28T16:40:48;36.05;;;22.20;;
52744;SDS011;38637;49.984;20.426;2023-02-28T16:43:18;31.85;;;21.88;;
52744;SDS011;38637;49.984;20.426;2023-02-28T16:45:47;37.50;;;26.25;;
52744;SDS011;38637;49.984;20.426;2023-02-28T16:48:13;37.53;;;23.33;;
52744;SDS011;38637;49.984;20.426;2023-02-28T16:50:40;36.20;;;24.08;;
52744;SDS011;38637;49.984;20.426;2023-02-28T16:53:06;43.87;;;29.07;;
52744;SDS011;38637;49.984;20.426;2023-02-28T16:55:31;38.20;;;24.10;;
52744;SDS011;38637;49.984;20.426;2023-02-28T16:57:58;63.67;;;42.43;;
52744;SDS011;38637;49.984;20.426;2023-02-28T17:00:26;61.53;;;44.67;;
52744;SDS011;38637;49.984;20.426;2023-02-28T17:02:52;54.22;;;38.63;;
52744;SDS011;38637;49.984;20.426;2023-02-28T17:05:18;45.35;;;32.50;;
52744;SDS011;38637;49.984;20.426;2023-02-28T17:07:45;43.88;;;32.50;;
52744;SDS011;38637;49.984;20.426;2023-02-28T17:10:18;50.88;;;35.20;;
52744;SDS011;38637;49.984;20.426;2023-02-28T17:12:48;59.83;;;37.90;;
52744;SDS011;38637;49.984;20.426;2023-02-28T17:15:14;69.80;;;45.87;;
52744;SDS011;38637;49.984;20.426;2023-02-28T17:17:42;222.85;;;120.53;;
52744;SDS011;38637;49.984;20.426;2023-02-28T17:20:12;250.55;;;130.20;;